createdAt,value
2022-09-20T00:04:06.835Z,1.52
2022-09-20T00:09:08.608Z,3.33
2022-09-20T00:14:10.248Z,2.55
2022-09-20T00:19:18.683Z,1.83
2022-09-20T00:24:20.445Z,3.28
2022-09-20T00:29:22.386Z,1.92
2022-09-20T00:34:42.771Z,2.55
2022-09-20T00:39:44.504Z,2.05
2022-09-20T00:45:00.512Z,2.75
2022-09-20T00:50:08.184Z,5.60
2022-09-20T00:55:10.245Z,1.15
2022-09-20T01:00:12.895Z,2.08
2022-09-20T01:05:15.728Z,2.58
2022-09-20T01:10:17.732Z,1.50
2022-09-20T01:15:23.239Z,2.95
2022-09-20T01:20:33.753Z,2.67
2022-09-20T01:26:05.607Z,2.03
2022-09-20T01:31:29.187Z,1.80
2022-09-20T01:36:36.210Z,1.40
2022-09-20T01:41:44.043Z,2.75
2022-09-20T01:46:49.171Z,4.30
2022-09-20T01:52:27.602Z,2.50
2022-09-20T01:57:35.401Z,3.08
2022-09-20T02:03:14.675Z,1.38
2022-09-20T02:08:44.440Z,3.15
2022-09-20T02:14:14.978Z,2.35
2022-09-20T02:19:50.917Z,4.25
2022-09-20T02:25:03.839Z,4.53
2022-09-20T02:30:34.642Z,3.17
2022-09-20T02:35:53.302Z,1.85
2022-09-20T02:41:00.680Z,2.65
2022-09-20T02:46:21.021Z,1.30
2022-09-20T02:51:41.172Z,1.90
2022-09-20T02:56:55.520Z,1.40
2022-09-20T03:02:11.027Z,1.65
2022-09-20T03:07:18.532Z,1.08
2022-09-20T03:12:49.358Z,4.28
2022-09-20T03:18:06.419Z,3.38
2022-09-20T03:23:40.603Z,1.48
2022-09-20T03:34:38.107Z,3.55
2022-09-20T03:40:18.593Z,1.95
2022-09-20T03:45:39.029Z,2.15
2022-09-20T03:51:08.637Z,1.50
2022-09-20T03:56:16.090Z,2.13
2022-09-20T04:01:42.201Z,2.75
2022-09-20T04:07:13.099Z,4.45
2022-09-20T04:12:42.355Z,6.15
2022-09-20T04:18:04.208Z,1.50
2022-09-20T04:23:21.626Z,3.58
2022-09-20T04:28:40.401Z,6.65
2022-09-20T04:33:48.499Z,10.70
2022-09-20T04:39:18.000Z,3.10
2022-09-20T04:44:27.736Z,2.00
2022-09-20T04:49:33.669Z,3.60
2022-09-20T04:54:53.360Z,2.00
2022-09-20T05:00:18.749Z,2.47
2022-09-20T05:05:39.256Z,2.43
2022-09-20T05:11:02.730Z,3.25
2022-09-20T05:16:08.309Z,2.00
2022-09-20T05:21:46.420Z,9.50
2022-09-20T05:26:50.932Z,2.70
2022-09-20T05:31:55.594Z,3.58
2022-09-20T05:42:24.764Z,7.90
2022-09-20T05:47:45.137Z,9.13
2022-09-20T05:52:59.238Z,6.57
2022-09-20T05:58:44.815Z,10.20
2022-09-20T06:03:55.847Z,11.07
2022-09-20T06:09:00.499Z,5.20
2022-09-20T06:14:43.358Z,4.85
2022-09-20T06:20:27.173Z,4.53
2022-09-20T06:25:45.037Z,5.80
2022-09-20T06:30:55.213Z,10.35
2022-09-20T06:36:19.859Z,5.70
2022-09-20T06:41:28.332Z,4.88
2022-09-20T06:46:36.074Z,10.77
2022-09-20T06:51:39.359Z,6.70
2022-09-20T06:56:41.013Z,6.68
2022-09-20T07:01:43.059Z,4.28
2022-09-20T07:06:44.751Z,2.35
2022-09-20T07:11:46.527Z,5.70
2022-09-20T07:16:48.077Z,4.68
2022-09-20T07:21:49.804Z,5.55
2022-09-20T07:27:03.498Z,4.65
2022-09-20T07:32:05.257Z,6.47
2022-09-20T07:37:07.035Z,9.18
2022-09-20T07:42:08.954Z,7.35
2022-09-20T07:47:11.174Z,6.22
2022-09-20T07:52:14.713Z,7.35
2022-09-20T07:57:17.140Z,9.93
2022-09-20T08:02:18.802Z,7.28
2022-09-20T08:07:20.437Z,6.93
2022-09-20T08:17:47.428Z,8.43
2022-09-20T08:23:06.318Z,7.40
2022-09-20T08:28:10.604Z,8.00
2022-09-20T08:33:12.990Z,7.00
2022-09-20T08:43:45.651Z,10.50
2022-09-20T08:48:47.341Z,13.50
2022-09-20T08:53:53.055Z,8.63
2022-09-20T08:58:56.268Z,13.90
2022-09-20T09:04:14.819Z,8.77
2022-09-20T09:09:25.575Z,6.82
2022-09-20T09:14:49.003Z,7.07
2022-09-20T09:19:50.966Z,6.93
2022-09-20T09:25:09.451Z,12.18
2022-09-20T09:30:27.622Z,10.13
2022-09-20T09:35:31.517Z,6.75
2022-09-20T09:40:33.290Z,5.40
2022-09-20T09:45:40.804Z,4.90
2022-09-20T09:50:42.535Z,15.98
2022-09-20T09:56:04.543Z,8.68
2022-09-20T10:01:14.575Z,8.05
2022-09-20T10:06:37.789Z,6.00
2022-09-20T10:12:06.891Z,5.90
2022-09-20T10:17:34.993Z,7.18
2022-09-20T10:23:39.510Z,4.32
2022-09-20T10:29:03.597Z,5.13
2022-09-20T10:34:35.869Z,5.32
2022-09-20T10:39:41.041Z,3.90
2022-09-20T10:45:01.916Z,4.50
2022-09-20T10:50:29.484Z,6.43
2022-09-20T10:55:37.154Z,9.43
2022-09-20T11:01:01.494Z,4.00
2022-09-20T11:06:39.930Z,8.02
2022-09-20T11:11:51.957Z,4.07
2022-09-20T11:17:00.248Z,5.18
2022-09-20T11:22:25.635Z,6.50
2022-09-20T11:27:32.858Z,5.32
2022-09-20T11:32:44.634Z,4.28
2022-09-20T11:38:18.673Z,2.53
2022-09-20T11:43:21.720Z,3.97
2022-09-20T11:48:29.595Z,5.50
2022-09-20T11:53:56.480Z,8.48
2022-09-20T11:59:01.337Z,3.47
2022-09-20T12:04:38.621Z,5.45
2022-09-20T12:09:43.967Z,5.45
2022-09-20T12:14:55.164Z,2.00
2022-09-20T12:19:56.879Z,4.85
2022-09-20T12:25:36.714Z,5.13
2022-09-20T12:30:38.338Z,1.95
2022-09-20T12:35:40.109Z,6.45
2022-09-20T12:41:15.513Z,4.55
2022-09-20T12:46:34.732Z,3.28
2022-09-20T12:51:54.913Z,2.38
2022-09-20T12:56:56.934Z,4.20
2022-09-20T13:02:37.353Z,5.53
2022-09-20T13:07:43.787Z,3.20
2022-09-20T13:12:49.500Z,5.15
2022-09-20T13:17:59.113Z,6.45
2022-09-20T13:23:03.449Z,4.28
2022-09-20T13:28:21.168Z,3.80
2022-09-20T13:33:25.085Z,1.48
2022-09-20T13:43:31.568Z,3.35
2022-09-20T13:48:33.246Z,2.28
2022-09-20T13:53:42.869Z,3.10
2022-09-20T13:58:44.735Z,1.75
2022-09-20T14:03:47.285Z,2.65
2022-09-20T14:08:51.260Z,2.17
2022-09-20T14:13:55.521Z,2.55
2022-09-20T14:18:58.800Z,6.47
2022-09-20T14:24:06.506Z,5.10
2022-09-20T14:29:30.681Z,0.85
2022-09-20T14:34:36.530Z,1.98
2022-09-20T14:39:47.925Z,2.65
2022-09-20T14:44:53.003Z,2.30
2022-09-20T14:49:55.559Z,4.25
2022-09-20T14:55:20.479Z,1.55
2022-09-20T15:00:22.325Z,1.67
2022-09-20T15:05:26.556Z,2.85
2022-09-20T15:10:29.600Z,5.50
2022-09-20T15:15:32.351Z,1.83
2022-09-20T15:20:34.256Z,3.65
2022-09-20T15:25:35.985Z,0.55
2022-09-20T15:30:37.492Z,1.05
2022-09-20T15:35:41.742Z,2.10
2022-09-20T15:40:46.058Z,1.52
2022-09-20T15:45:52.368Z,0.88
2022-09-20T15:51:04.464Z,5.35
2022-09-20T15:56:21.938Z,1.45
2022-09-20T16:01:24.112Z,3.63
2022-09-20T16:06:26.333Z,2.03
2022-09-20T16:11:28.184Z,2.50
2022-09-20T16:16:36.124Z,3.08
2022-09-20T16:21:42.689Z,2.60
2022-09-20T16:26:47.559Z,3.00
2022-09-20T16:31:50.205Z,1.65
2022-09-20T16:36:54.622Z,2.13
2022-09-20T16:42:05.027Z,1.80
2022-09-20T16:47:10.490Z,1.95
2022-09-20T16:52:12.220Z,0.93
2022-09-20T16:57:14.475Z,1.48
2022-09-20T17:02:16.150Z,2.38
2022-09-20T17:07:17.820Z,1.35
2022-09-20T17:12:22.362Z,2.65
2022-09-20T17:17:24.004Z,0.65
2022-09-20T17:22:25.578Z,1.15
2022-09-20T17:27:27.143Z,1.98
2022-09-20T17:32:29.350Z,1.52
2022-09-20T17:37:32.099Z,4.95
2022-09-20T17:42:34.611Z,6.43
2022-09-20T17:47:36.148Z,8.65
2022-09-20T17:52:37.692Z,6.88
2022-09-20T17:57:39.229Z,3.25
2022-09-20T18:02:40.883Z,3.63
2022-09-20T18:07:42.575Z,8.32
2022-09-20T18:12:44.242Z,5.68
2022-09-20T18:17:45.772Z,4.85
2022-09-20T18:22:50.369Z,6.55
2022-09-20T18:27:52.379Z,4.82
2022-09-20T18:32:54.005Z,5.63
2022-09-20T18:37:55.600Z,6.07
2022-09-20T18:43:04.561Z,6.80
2022-09-20T18:48:08.757Z,6.07
2022-09-20T18:53:10.540Z,4.90
2022-09-20T18:58:12.262Z,7.57
2022-09-20T19:03:23.344Z,14.20
2022-09-20T19:08:51.353Z,9.50
2022-09-20T19:14:22.114Z,5.80
2022-09-20T19:20:06.159Z,9.70
2022-09-20T19:25:37.866Z,5.72
2022-09-20T19:30:40.472Z,6.95
2022-09-20T19:35:49.363Z,6.45
2022-09-20T19:41:06.602Z,5.28
2022-09-20T19:46:36.760Z,6.05
2022-09-20T19:51:40.304Z,6.97
2022-09-20T19:56:59.366Z,10.10
2022-09-20T20:02:01.816Z,9.20
2022-09-20T20:07:27.959Z,8.73
2022-09-20T20:13:04.221Z,10.73
2022-09-20T20:18:25.199Z,10.90
2022-09-20T20:23:27.879Z,12.77
2022-09-20T20:28:30.353Z,10.68
2022-09-20T20:33:32.891Z,13.65
2022-09-20T20:38:39.372Z,9.90
2022-09-20T20:43:42.946Z,8.73
2022-09-20T20:48:46.081Z,11.03
2022-09-20T20:53:50.308Z,8.95
2022-09-20T20:58:52.929Z,7.53
2022-09-20T21:03:56.157Z,8.02
2022-09-20T21:08:58.506Z,7.60
2022-09-20T21:14:01.709Z,7.80
2022-09-20T21:19:05.302Z,6.47
2022-09-20T21:24:09.525Z,8.87
2022-09-20T21:29:12.272Z,4.28
2022-09-20T21:34:15.534Z,6.35
2022-09-20T21:39:17.199Z,4.03
2022-09-20T21:44:20.485Z,5.68
2022-09-20T21:49:22.098Z,4.95
2022-09-20T21:54:24.192Z,5.72
2022-09-20T21:59:26.881Z,4.88
2022-09-20T22:04:28.923Z,4.50
2022-09-20T22:09:30.949Z,4.40
2022-09-20T22:14:32.547Z,3.17
2022-09-20T22:19:34.848Z,3.35
2022-09-20T22:24:36.487Z,2.85
2022-09-20T22:29:38.007Z,2.25
2022-09-20T22:34:39.544Z,3.30
2022-09-20T22:39:41.503Z,4.93
2022-09-20T22:44:43.041Z,3.80
2022-09-20T22:49:44.752Z,2.33
2022-09-20T22:54:46.794Z,3.85
2022-09-20T22:59:48.315Z,2.90
2022-09-20T23:04:49.907Z,4.65
2022-09-20T23:09:51.538Z,5.25
2022-09-20T23:14:53.084Z,3.45
2022-09-20T23:19:54.658Z,4.40
2022-09-20T23:24:56.258Z,3.97
2022-09-20T23:29:57.768Z,4.32
2022-09-20T23:34:59.340Z,3.97
2022-09-20T23:40:01.014Z,3.47
2022-09-20T23:45:02.711Z,2.72
2022-09-20T23:50:04.556Z,2.45
2022-09-20T23:55:06.412Z,1.15
